Time;durP1;ratioP1;P1;durP2;ratioP2;P2;SDS_P1;SDS_P2;PMS_P1;PMS_P2;Temp;Humidity;BMP_temperature;BMP_pressure;BME280_temperature;BME280_humidity;BME280_pressure;Samples;Min_cycle;Max_cycle;Signal;HPM_P1;HPM_P2
2023/03/29 00:00:12;;;;;;;;;;;;;;;;;;5001394;28;90641;-62
2023/03/29 00:02:37;;;;;;;;;;;;;;;;;;4997445;28;89049;-61
2023/03/29 00:05:03;;;;;;;;;;;;;;;;;;4998784;28;89744;-61
2023/03/29 00:07:32;;;;;;;;;;;;;;;;;;5029221;27;91920;-61
2023/03/29 00:09:57;;;;;;;;;;;;;;;;;;4996655;28;89031;-61
2023/03/29 00:12:22;;;;;;;;;;;;;;;;;;4997330;28;89543;-61
2023/03/29 00:14:47;;;;;;;;;;;;;;;;;;4998096;28;89270;-62
2023/03/29 00:17:12;;;;;;;;;;;;;;;;;;4997371;28;89366;-62
2023/03/29 00:19:38;;;;;;;;;;;;;;;;;;5000133;28;90084;-61
2023/03/29 00:22:06;;;;;;;;;;;;;;;;;;5029069;27;89613;-61
2023/03/29 00:24:31;;;;;;;;;;;;;;;;;;4996124;28;89706;-62
2023/03/29 00:26:56;;;;;;;;;;;;;;;;;;4997405;28;90083;-62
2023/03/29 00:29:21;;;;;;;;;;;;;;;;;;4995731;28;89084;-61
2023/03/29 00:31:52;;;;;;;;;;;;;;;;;;4996484;28;90279;-62
2023/03/29 00:34:18;;;;;;;;;;;;;;;;;;4996201;28;90461;-62
2023/03/29 00:36:44;;;;;;;;;;;;;;;;;;4995227;28;89494;-62
2023/03/29 00:39:09;;;;;;;;;;;;;;;;;;4996710;28;89725;-62
2023/03/29 00:41:34;;;;;;;;;;;;;;;;;;4997365;28;90429;-62
2023/03/29 00:44:01;;;;;;;;;;;;;;;;;;4985351;28;89871;-62
2023/03/29 00:46:27;;;;;;;;;;;;;;;;;;4978412;28;89894;-61
2023/03/29 00:48:56;;;;;;;;;;;;;;;;;;4980931;28;89936;-61
2023/03/29 00:51:23;;;;;;;;;;;;;;;;;;4977098;28;90795;-62
2023/03/29 00:53:52;;;;;;;;;;;;;;;;;;4975463;28;90506;-61
2023/03/29 00:56:17;;;;;;;;;;;;;;;;;;4994185;28;89833;-62
2023/03/29 00:58:53;;;;;;;;;;;;;;;;;;4982670;28;89941;-61
2023/03/29 01:01:40;;;;;;;;;;;;;;;;;;4982890;28;90557;-62
2023/03/29 01:04:17;;;;;;;;;;;;;;;;;;4984684;28;89665;-62
2023/03/29 01:06:45;;;;;;;;;;;;;;;;;;4985578;28;90326;-62
2023/03/29 01:09:12;;;;;;;;;;;;;;;;;;4982768;28;89426;-61
2023/03/29 01:11:42;;;;;;;;;;;;;;;;;;4982607;28;90644;-61
2023/03/29 01:14:14;;;;;;;;;;;;;;;;;;4986643;28;90756;-61
2023/03/29 01:16:39;;;;;;;;;;;;;;;;;;4982092;28;89183;-61
2023/03/29 01:19:06;;;;;;;;;;;;;;;;;;4985010;28;89781;-61
2023/03/29 01:22:00;;;;;;;;;;;;;;;;;;4974174;28;91146;-61
2023/03/29 01:24:40;;;;;;;;;;;;;;;;;;4988304;28;89219;-61
2023/03/29 01:27:12;;;;;;;;;;;;;;;;;;4986365;28;89686;-61
2023/03/29 01:29:44;;;;;;;;;;;;;;;;;;4981642;28;89072;-61
2023/03/29 01:32:12;;;;;;;;;;;;;;;;;;4980445;28;91147;-62
2023/03/29 01:34:42;;;;;;;;;;;;;;;;;;4986762;28;89378;-61
2023/03/29 01:37:20;;;;;;;;;;;;;;;;;;4983950;28;89789;-61
2023/03/29 01:39:45;;;;;;;;;;;;;;;;;;4985816;28;89650;-62
2023/03/29 01:42:14;;;;;;;;;;;;;;;;;;4982635;28;90899;-62
2023/03/29 01:44:47;;;;;;;;;;;;;;;;;;4978991;28;89743;-62
2023/03/29 01:47:25;;;;;;;;;;;;;;;;;;4983676;28;89697;-62
2023/03/29 01:49:57;;;;;;;;;;;;;;;;;;4983131;28;90073;-62
2023/03/29 01:52:25;;;;;;;;;;;;;;;;;;4976916;28;89808;-62
2023/03/29 01:54:55;;;;;;;;;;;;;;;;;;4982967;28;89244;-62
2023/03/29 01:57:23;;;;;;;;;;;;;;;;;;4981019;28;89424;-62
2023/03/29 01:59:51;;;;;;;;;;;;;;;;;;4978302;28;91343;-62
2023/03/29 02:02:17;;;;;;;;;;;;;;;;;;4985133;28;89709;-62
2023/03/29 02:04:47;;;;;;;;;;;;;;;;;;4977577;28;89113;-61
2023/03/29 02:07:14;;;;;;;;;;;;;;;;;;4980718;28;89205;-61
2023/03/29 02:09:40;;;;;;;;;;;;;;;;;;4987694;28;89889;-61
2023/03/29 02:12:06;;;;;;;;;;;;;;;;;;4985596;28;89334;-62
2023/03/29 02:14:31;;;;;;;;;;;;;;;;;;4982839;28;90124;-62
2023/03/29 02:17:08;;;;;;;;;;;;;;;;;;4986015;28;89972;-61
2023/03/29 02:19:33;;;;;;;;;;;;;;;;;;4988184;28;89990;-61
2023/03/29 02:22:02;;;;;;;;;;;;;;;;;;4981065;28;89308;-61
2023/03/29 02:24:31;;;;;;;;;;;;;;;;;;4988888;28;89338;-62
2023/03/29 02:26:56;;;;;;;;;;;;;;;;;;4987850;28;89678;-61
2023/03/29 02:29:21;;;;;;;;;;;;;;;;;;4978421;28;90173;-62
2023/03/29 02:32:05;;;;;;;;;;;;;;;;;;4990587;28;89043;-62
2023/03/29 02:34:36;;;;;;;;;;;;;;;;;;4986246;28;89488;-61
2023/03/29 02:37:05;;;;;;;;;;;;;;;;;;4986223;28;89107;-61
2023/03/29 02:39:32;;;;;;;;;;;;;;;;;;4980672;28;90073;-61
2023/03/29 02:41:58;;;;;;;;;;;;;;;;;;4980383;28;89477;-62
2023/03/29 02:44:25;;;;;;;;;;;;;;;;;;4989090;28;89384;-62
2023/03/29 02:46:55;;;;;;;;;;;;;;;;;;4982176;28;89817;-61
2023/03/29 02:49:21;;;;;;;;;;;;;;;;;;4981393;28;89491;-62
2023/03/29 02:51:47;;;;;;;;;;;;;;;;;;4973524;28;89092;-62
2023/03/29 02:54:18;;;;;;;;;;;;;;;;;;4979138;28;89657;-61
2023/03/29 02:56:48;;;;;;;;;;;;;;;;;;4985022;28;90630;-62
2023/03/29 02:59:15;;;;;;;;;;;;;;;;;;4982552;28;91272;-62
2023/03/29 03:01:41;;;;;;;;;;;;;;;;;;4983698;28;89685;-62
2023/03/29 03:04:07;;;;;;;;;;;;;;;;;;4982816;28;90169;-61
2023/03/29 03:06:32;;;;;;;;;;;;;;;;;;4982339;28;89525;-62
2023/03/29 03:08:57;;;;;;;;;;;;;;;;;;4986256;28;90669;-61
2023/03/29 03:11:22;;;;;;;;;;;;;;;;;;4980220;28;89728;-61
2023/03/29 03:13:48;;;;;;;;;;;;;;;;;;4986484;28;90785;-62
2023/03/29 03:16:13;;;;;;;;;;;;;;;;;;4987584;28;89334;-62
2023/03/29 03:18:38;;;;;;;;;;;;;;;;;;4989081;28;89199;-61
2023/03/29 03:21:03;;;;;;;;;;;;;;;;;;5012842;27;90287;-61
2023/03/29 03:23:29;;;;;;;;;;;;;;;;;;4987730;28;89535;-62
2023/03/29 03:25:54;;;;;;;;;;;;;;;;;;4981136;28;90715;-61
2023/03/29 03:28:20;;;;;;;;;;;;;;;;;;4984205;28;89730;-61
2023/03/29 03:30:46;;;;;;;;;;;;;;;;;;4983711;28;89865;-61
2023/03/29 03:33:11;;;;;;;;;;;;;;;;;;4982968;28;89794;-61
2023/03/29 03:35:37;;;;;;;;;;;;;;;;;;4981804;28;90429;-62
2023/03/29 03:38:04;;;;;;;;;;;;;;;;;;4989432;28;89594;-61
2023/03/29 03:40:29;;;;;;;;;;;;;;;;;;4983394;28;89616;-61
2023/03/29 03:42:55;;;;;;;;;;;;;;;;;;4978669;28;90230;-61
2023/03/29 03:45:20;;;;;;;;;;;;;;;;;;4983509;28;89773;-62
2023/03/29 03:47:46;;;;;;;;;;;;;;;;;;4984687;28;89885;-61
2023/03/29 03:50:12;;;;;;;;;;;;;;;;;;4983312;28;89324;-62
2023/03/29 03:52:37;;;;;;;;;;;;;;;;;;4979058;28;89742;-62
2023/03/29 03:55:03;;;;;;;;;;;;;;;;;;4983678;28;89343;-62
2023/03/29 03:57:28;;;;;;;;;;;;;;;;;;4985441;28;89792;-62
2023/03/29 03:59:53;;;;;;;;;;;;;;;;;;4977996;28;90319;-61
2023/03/29 04:02:19;;;;;;;;;;;;;;;;;;4978436;28;89816;-61
2023/03/29 04:04:45;;;;;;;;;;;;;;;;;;4977258;28;91019;-62
2023/03/29 04:07:13;;;;;;;;;;;;;;;;;;4982319;28;89272;-61
2023/03/29 04:09:38;;;;;;;;;;;;;;;;;;4985232;28;89337;-62
2023/03/29 04:12:03;;;;;;;;;;;;;;;;;;4981866;28;90638;-62
2023/03/29 04:14:31;;;;;;;;;;;;;;;;;;4984595;28;89628;-61
2023/03/29 04:16:56;;;;;;;;;;;;;;;;;;4978022;28;89496;-61
2023/03/29 04:19:21;;;;;;;;;;;;;;;;;;4980356;28;89280;-62
2023/03/29 04:21:48;;;;;;;;;;;;;;;;;;4986507;28;90375;-61
2023/03/29 04:24:13;;;;;;;;;;;;;;;;;;4985425;28;91076;-61
2023/03/29 04:26:38;;;;;;;;;;;;;;;;;;4977822;28;89662;-62
2023/03/29 04:29:04;;;;;;;;;;;;;;;;;;4979985;28;89442;-61
2023/03/29 04:31:30;;;;;;;;;;;;;;;;;;4984094;28;89195;-61
2023/03/29 04:33:55;;;;;;;;;;;;;;;;;;4982550;28;90242;-61
2023/03/29 04:36:20;;;;;;;;;;;;;;;;;;4984856;28;89078;-61
2023/03/29 04:38:46;;;;;;;;;;;;;;;;;;4979421;28;89666;-61
2023/03/29 04:41:12;;;;;;;;;;;;;;;;;;4989574;28;89190;-61
2023/03/29 04:43:37;;;;;;;;;;;;;;;;;;4985656;28;90166;-60
2023/03/29 04:46:02;;;;;;;;;;;;;;;;;;4978987;28;89272;-61
2023/03/29 04:48:30;;;;;;;;;;;;;;;;;;4982762;28;89745;-61
2023/03/29 04:50:55;;;;;;;;;;;;;;;;;;4980191;28;89708;-61
2023/03/29 04:53:21;;;;;;;;;;;;;;;;;;4984923;28;89626;-61
2023/03/29 04:55:46;;;;;;;;;;;;;;;;;;4979461;28;89233;-61
2023/03/29 04:58:11;;;;;;;;;;;;;;;;;;4983664;28;89775;-62
2023/03/29 05:00:37;;;;;;;;;;;;;;;;;;4979212;28;89304;-61
2023/03/29 05:03:03;;;;;;;;;;;;;;;;;;4985920;28;89694;-61
2023/03/29 05:05:28;;;;;;;;;;;;;;;;;;4977531;28;90598;-61
2023/03/29 05:07:54;;;;;;;;;;;;;;;;;;4975546;28;90259;-61
2023/03/29 05:10:19;;;;;;;;;;;;;;;;;;4979496;28;89566;-62
2023/03/29 05:12:45;;;;;;;;;;;;;;;;;;4981235;28;89912;-61
2023/03/29 05:15:10;;;;;;;;;;;;;;;;;;4980919;28;89103;-61
2023/03/29 05:17:36;;;;;;;;;;;;;;;;;;4979744;28;90553;-62
2023/03/29 05:20:08;;;;;;;;;;;;;;;;;;4977728;28;90153;-62
2023/03/29 05:22:33;;;;;;;;;;;;;;;;;;4981054;28;89418;-62
2023/03/29 05:24:59;;;;;;;;;;;;;;;;;;4983910;28;89824;-61
2023/03/29 05:27:24;;;;;;;;;;;;;;;;;;4983363;28;89918;-61
2023/03/29 05:29:49;;;;;;;;;;;;;;;;;;4978547;28;90315;-61
2023/03/29 05:32:15;;;;;;;;;;;;;;;;;;4978101;28;89472;-60
2023/03/29 05:34:40;;;;;;;;;;;;;;;;;;4978688;28;89287;-60
2023/03/29 05:37:06;;;;;;;;;;;;;;;;;;4978665;28;89781;-63
2023/03/29 05:39:32;;;;;;;;;;;;;;;;;;4981361;28;89298;-67
2023/03/29 05:41:57;;;;;;;;;;;;;;;;;;4973378;28;89687;-63
2023/03/29 05:44:23;;;;;;;;;;;;;;;;;;4978750;28;91040;-64
2023/03/29 05:46:48;;;;;;;;;;;;;;;;;;4982658;28;89384;-62
2023/03/29 05:49:13;;;;;;;;;;;;;;;;;;4983562;28;89909;-63
2023/03/29 05:51:40;;;;;;;;;;;;;;;;;;4977635;28;90323;-62
2023/03/29 05:54:06;;;;;;;;;;;;;;;;;;4981722;28;89536;-60
2023/03/29 05:56:31;;;;;;;;;;;;;;;;;;4975669;28;89680;-61
2023/03/29 05:58:57;;;;;;;;;;;;;;;;;;4979400;28;89519;-60
2023/03/29 06:01:23;;;;;;;;;;;;;;;;;;4978200;28;89313;-60
2023/03/29 06:03:49;;;;;;;;;;;;;;;;;;4975834;28;90089;-60
2023/03/29 06:06:15;;;;;;;;;;;;;;;;;;4992919;28;89249;-60
2023/03/29 06:08:40;;;;;;;;;;;;;;;;;;4997260;28;89090;-61
2023/03/29 06:11:07;;;;;;;;;;;;;;;;;;4994798;28;89838;-61
2023/03/29 06:13:33;;;;;;;;;;;;;;;;;;4989047;28;90142;-61
2023/03/29 06:15:58;;;;;;;;;;;;;;;;;;4991653;28;90004;-61
2023/03/29 06:18:23;;;;;;;;;;;;;;;;;;4993881;28;90225;-61
2023/03/29 06:20:50;;;;;;;;;;;;;;;;;;4989702;28;89791;-61
2023/03/29 06:23:15;;;;;;;;;;;;;;;;;;4991379;28;90745;-60
2023/03/29 06:25:40;;;;;;;;;;;;;;;;;;4990465;28;90586;-61
2023/03/29 06:28:06;;;;;;;;;;;;;;;;;;4995212;28;90550;-60
2023/03/29 06:30:31;;;;;;;;;;;;;;;;;;4995384;28;89676;-61
2023/03/29 06:32:57;;;;;;;;;;;;;;;;;;4991730;28;89592;-60
2023/03/29 06:35:23;;;;;;;;;;;;;;;;;;5025805;27;89644;-61
2023/03/29 06:37:48;;;;;;;;;;;;;;;;;;4992118;28;90260;-60
2023/03/29 06:40:26;;;;;;;;;;;;;;;;;;4993721;28;89977;-60
2023/03/29 06:42:56;;;;;;;;;;;;;;;;;;4994534;28;90641;-60
2023/03/29 06:45:22;;;;;;;;;;;;;;;;;;4995668;28;90005;-60
2023/03/29 06:47:47;;;;;;;;;;;;;;;;;;4993182;28;90187;-60
2023/03/29 06:50:13;;;;;;;;;;;;;;;;;;4996334;28;90323;-60
2023/03/29 06:52:38;;;;;;;;;;;;;;;;;;4995701;28;89626;-60
2023/03/29 06:55:06;;;;;;;;;;;;;;;;;;5025877;27;92830;-59
2023/03/29 06:57:32;;;;;;;;;;;;;;;;;;4991274;28;89974;-60
2023/03/29 06:59:58;;;;;;;;;;;;;;;;;;4993913;28;89440;-60
2023/03/29 07:02:23;;;;;;;;;;;;;;;;;;4997405;28;89684;-61
2023/03/29 07:04:48;;;;;;;;;;;;;;;;;;4996889;28;90175;-60
2023/03/29 07:07:26;;;;;;;;;;;;;;;;;;4989643;28;91993;-60
2023/03/29 07:09:54;;;;;;;;;;;;;;;;;;4994236;28;90639;-59
2023/03/29 07:12:22;;;;;;;;;;;;;;;;;;5029777;27;90674;-60
2023/03/29 07:14:48;;;;;;;;;;;;;;;;;;4995239;28;90096;-61
2023/03/29 07:17:13;;;;;;;;;;;;;;;;;;4995059;28;89913;-60
2023/03/29 07:19:39;;;;;;;;;;;;;;;;;;4993168;28;89137;-60
2023/03/29 07:22:04;;;;;;;;;;;;;;;;;;4993708;28;89803;-60
2023/03/29 07:24:29;;;;;;;;;;;;;;;;;;4994865;28;89604;-60
2023/03/29 07:26:54;;;;;;;;;;;;;;;;;;4997356;28;90017;-60
2023/03/29 07:29:19;;;;;;;;;;;;;;;;;;4997196;28;89897;-61
2023/03/29 07:31:45;;;;;;;;;;;;;;;;;;4994398;28;90054;-60
2023/03/29 07:34:10;;;;;;;;;;;;;;;;;;4998366;28;89206;-60
2023/03/29 07:36:37;;;;;;;;;;;;;;;;;;4996285;28;89914;-60
2023/03/29 07:39:03;;;;;;;;;;;;;;;;;;4995584;28;89546;-60
2023/03/29 07:41:28;;;;;;;;;;;;;;;;;;4994776;28;89882;-60
2023/03/29 07:43:54;;;;;;;;;;;;;;;;;;4995206;28;90394;-60
2023/03/29 07:46:19;;;;;;;;;;;;;;;;;;4994473;28;90207;-60
2023/03/29 07:48:45;;;;;;;;;;;;;;;;;;4994102;28;90633;-60
2023/03/29 07:51:10;;;;;;;;;;;;;;;;;;4995452;28;89888;-59
2023/03/29 07:53:36;;;;;;;;;;;;;;;;;;4995017;28;89207;-60
2023/03/29 07:56:01;;;;;;;;;;;;;;;;;;4998773;28;89887;-59
2023/03/29 07:58:26;;;;;;;;;;;;;;;;;;4995652;28;89353;-60
2023/03/29 08:00:52;;;;;;;;;;;;;;;;;;4994747;28;89912;-60
2023/03/29 08:03:17;;;;;;;;;;;;;;;;;;4994702;28;90203;-60
2023/03/29 08:05:42;;;;;;;;;;;;;;;;;;4995226;28;89082;-60
2023/03/29 08:08:08;;;;;;;;;;;;;;;;;;4995542;28;89100;-61
2023/03/29 08:10:34;;;;;;;;;;;;;;;;;;4988888;28;89653;-62
2023/03/29 08:13:02;;;;;;;;;;;;;;;;;;4995126;28;89526;-61
2023/03/29 08:15:27;;;;;;;;;;;;;;;;;;4994240;28;89738;-64
2023/03/29 08:17:53;;;;;;;;;;;;;;;;;;4988347;28;89650;-60
2023/03/29 08:20:18;;;;;;;;;;;;;;;;;;4990931;28;89856;-61
2023/03/29 08:22:44;;;;;;;;;;;;;;;;;;4986878;28;90029;-61
2023/03/29 08:25:10;;;;;;;;;;;;;;;;;;4986767;28;90246;-61
2023/03/29 08:27:36;;;;;;;;;;;;;;;;;;4986775;28;90894;-62
2023/03/29 08:30:03;;;;;;;;;;;;;;;;;;4986624;28;91417;-61
2023/03/29 08:32:28;;;;;;;;;;;;;;;;;;4988278;28;90668;-60
2023/03/29 08:34:54;;;;;;;;;;;;;;;;;;4990212;28;91047;-61
2023/03/29 08:37:19;;;;;;;;;;;;;;;;;;4996829;28;89894;-61
2023/03/29 08:39:44;;;;;;;;;;;;;;;;;;4989074;28;90427;-60
2023/03/29 08:42:28;;;;;;;;;;;;;;;;;;4994247;28;89611;-61
2023/03/29 08:45:06;;;;;;;;;;;;;;;;;;4989420;28;89644;-62
2023/03/29 08:47:32;;;;;;;;;;;;;;;;;;4993171;28;92483;-60
2023/03/29 08:49:57;;;;;;;;;;;;;;;;;;4993655;28;89289;-60
2023/03/29 08:52:30;;;;;;;;;;;;;;;;;;4995037;28;89689;-61
2023/03/29 08:54:58;;;;;;;;;;;;;;;;;;4997190;28;91070;-60
2023/03/29 08:57:26;;;;;;;;;;;;;;;;;;4995285;28;90117;-61
2023/03/29 08:59:53;;;;;;;;;;;;;;;;;;4993545;28;90280;-61
2023/03/29 09:02:22;;;;;;;;;;;;;;;;;;5004824;28;90341;-60
2023/03/29 09:04:49;;;;;;;;;;;;;;;;;;4987276;28;89188;-61
2023/03/29 09:07:14;;;;;;;;;;;;;;;;;;4994488;28;90145;-61
2023/03/29 09:09:41;;;;;;;;;;;;;;;;;;4994291;28;91518;-61
2023/03/29 09:12:12;;;;;;;;;;;;;;;;;;4993893;28;89712;-61
2023/03/29 09:14:56;;;;;;;;;;;;;;;;;;4991566;28;89869;-63
2023/03/29 09:17:27;;;;;;;;;;;;;;;;;;4991903;28;89951;-62
2023/03/29 09:19:59;;;;;;;;;;;;;;;;;;4992549;28;89098;-62
2023/03/29 09:22:40;;;;;;;;;;;;;;;;;;4997246;28;90432;-60
2023/03/29 09:25:08;;;;;;;;;;;;;;;;;;4993512;28;89810;-61
2023/03/29 09:27:37;;;;;;;;;;;;;;;;;;4994963;28;90093;-62
2023/03/29 09:30:06;;;;;;;;;;;;;;;;;;4991248;28;91126;-60
2023/03/29 09:33:03;;;;;;;;;;;;;;;;;;4876029;28;89307;-72
2023/03/29 09:35:36;;;;;;;;;;;;;;;;;;4965283;28;92555;-73
2023/03/29 09:38:02;;;;;;;;;;;;;;;;;;4965165;28;89681;-68
2023/03/29 09:40:39;;;;;;;;;;;;;;;;;;4967358;28;89768;-70
2023/03/29 09:43:08;;;;;;;;;;;;;;;;;;4965280;28;90020;-68
2023/03/29 09:45:37;;;;;;;;;;;;;;;;;;4966936;28;90163;-74
2023/03/29 09:48:11;;;;;;;;;;;;;;;;;;4962796;28;90782;-71
2023/03/29 09:50:39;;;;;;;;;;;;;;;;;;4962003;28;89764;-71
2023/03/29 09:53:04;;;;;;;;;;;;;;;;;;4963555;28;90942;-73
2023/03/29 09:55:32;;;;;;;;;;;;;;;;;;4961239;28;89704;-71
2023/03/29 09:58:00;;;;;;;;;;;;;;;;;;4963495;28;89606;-71
2023/03/29 10:00:25;;;;;;;;;;;;;;;;;;4963243;28;90271;-72
2023/03/29 10:02:55;;;;;;;;;;;;;;;;;;4960651;28;89176;-71
2023/03/29 10:05:23;;;;;;;;;;;;;;;;;;4994431;28;91916;-72
2023/03/29 10:07:53;;;;;;;;;;;;;;;;;;4967850;28;89605;-71
2023/03/29 10:10:21;;;;;;;;;;;;;;;;;;4965978;28;89591;-67
2023/03/29 10:12:51;;;;;;;;;;;;;;;;;;4964054;28;89061;-73
2023/03/29 10:15:18;;;;;;;;;;;;;;;;;;4965355;28;89790;-71
2023/03/29 10:17:44;;;;;;;;;;;;;;;;;;4964806;28;89337;-72
2023/03/29 10:20:13;;;;;;;;;;;;;;;;;;4980598;28;89126;-72
2023/03/29 10:22:45;;;;;;;;;;;;;;;;;;4964444;28;90668;-75
2023/03/29 10:25:14;;;;;;;;;;;;;;;;;;4964709;28;90275;-71
2023/03/29 10:27:40;;;;;;;;;;;;;;;;;;4962934;28;90774;-73
2023/03/29 10:30:11;;;;;;;;;;;;;;;;;;4965077;28;90360;-71
2023/03/29 10:32:37;;;;;;;;;;;;;;;;;;4962564;28;90845;-73
2023/03/29 10:35:11;;;;;;;;;;;;;;;;;;4961281;28;92437;-71
2023/03/29 10:37:41;;;;;;;;;;;;;;;;;;4966758;28;89976;-71
2023/03/29 10:40:14;;;;;;;;;;;;;;;;;;4964967;28;89383;-71
2023/03/29 10:42:45;;;;;;;;;;;;;;;;;;4969025;28;90186;-71
2023/03/29 10:45:20;;;;;;;;;;;;;;;;;;4964744;28;89632;-72
2023/03/29 10:47:47;;;;;;;;;;;;;;;;;;4960150;28;89199;-72
2023/03/29 10:50:14;;;;;;;;;;;;;;;;;;4965910;28;90600;-72
2023/03/29 10:52:39;;;;;;;;;;;;;;;;;;4967068;28;89196;-72
2023/03/29 10:55:05;;;;;;;;;;;;;;;;;;4964931;28;90918;-71
2023/03/29 10:57:41;;;;;;;;;;;;;;;;;;4963841;28;90068;-72
2023/03/29 11:00:07;;;;;;;;;;;;;;;;;;4966346;28;89814;-72
2023/03/29 11:02:42;;;;;;;;;;;;;;;;;;4967607;28;89856;-72
2023/03/29 11:05:18;;;;;;;;;;;;;;;;;;4964490;28;91437;-71
2023/03/29 11:07:55;;;;;;;;;;;;;;;;;;4968390;28;89654;-72
2023/03/29 11:10:24;;;;;;;;;;;;;;;;;;4967736;28;89745;-71
2023/03/29 11:13:03;;;;;;;;;;;;;;;;;;4969397;28;90757;-71
2023/03/29 11:15:42;;;;;;;;;;;;;;;;;;4968166;28;91110;-70
2023/03/29 11:18:16;;;;;;;;;;;;;;;;;;4965650;28;89492;-71
2023/03/29 11:20:47;;;;;;;;;;;;;;;;;;4960470;28;89954;-71
2023/03/29 11:23:22;;;;;;;;;;;;;;;;;;4967201;28;91509;-70
2023/03/29 11:25:53;;;;;;;;;;;;;;;;;;4966080;28;90932;-72
2023/03/29 11:28:38;;;;;;;;;;;;;;;;;;4999659;28;89386;-72
2023/03/29 11:31:18;;;;;;;;;;;;;;;;;;4980562;28;90299;-71
2023/03/29 11:33:46;;;;;;;;;;;;;;;;;;4966752;28;89342;-69
2023/03/29 11:36:26;;;;;;;;;;;;;;;;;;4970496;28;89763;-72
2023/03/29 11:39:03;;;;;;;;;;;;;;;;;;4966209;28;90946;-72
2023/03/29 11:41:33;;;;;;;;;;;;;;;;;;4966346;28;89081;-71
2023/03/29 11:44:03;;;;;;;;;;;;;;;;;;4965273;28;92929;-69
2023/03/29 11:46:41;;;;;;;;;;;;;;;;;;4965727;28;89536;-72
2023/03/29 11:49:25;;;;;;;;;;;;;;;;;;4966131;28;89533;-69
2023/03/29 11:51:57;;;;;;;;;;;;;;;;;;4966620;28;90413;-70
2023/03/29 11:54:22;;;;;;;;;;;;;;;;;;4967477;28;89664;-70
2023/03/29 11:56:54;;;;;;;;;;;;;;;;;;4966059;28;89640;-71
2023/03/29 11:59:31;;;;;;;;;;;;;;;;;;4968447;28;89904;-71
2023/03/29 12:02:11;;;;;;;;;;;;;;;;;;4966391;28;90133;-71
2023/03/29 12:04:42;;;;;;;;;;;;;;;;;;4966420;28;89737;-70
2023/03/29 12:07:14;;;;;;;;;;;;;;;;;;4965964;28;90675;-71
2023/03/29 12:09:48;;;;;;;;;;;;;;;;;;4966799;28;89396;-72
2023/03/29 12:12:17;;;;;;;;;;;;;;;;;;4967823;28;90836;-72
2023/03/29 12:14:48;;;;;;;;;;;;;;;;;;4965466;28;91091;-71
2023/03/29 12:17:17;;;;;;;;;;;;;;;;;;4966169;28;89810;-71
2023/03/29 12:19:45;;;;;;;;;;;;;;;;;;4966123;28;89765;-70
2023/03/29 12:22:10;;;;;;;;;;;;;;;;;;4969750;28;89540;-72
2023/03/29 12:24:39;;;;;;;;;;;;;;;;;;4963873;28;89908;-69
2023/03/29 12:27:18;;;;;;;;;;;;;;;;;;4964796;28;93689;-72
2023/03/29 12:29:54;;;;;;;;;;;;;;;;;;4967679;28;88938;-69
2023/03/29 12:32:25;;;;;;;;;;;;;;;;;;4966604;28;89735;-71
2023/03/29 12:35:02;;;;;;;;;;;;;;;;;;4965402;28;89841;-71
2023/03/29 12:37:30;;;;;;;;;;;;;;;;;;4966267;28;89606;-70
2023/03/29 12:40:11;;;;;;;;;;;;;;;;;;4965188;28;89950;-70
2023/03/29 12:42:43;;;;;;;;;;;;;;;;;;4965195;28;89642;-71
2023/03/29 12:45:31;;;;;;;;;;;;;;;;;;4966837;28;91140;-76
2023/03/29 12:47:56;;;;;;;;;;;;;;;;;;4962286;28;89339;-71
2023/03/29 12:50:27;;;;;;;;;;;;;;;;;;4966112;28;90238;-70
2023/03/29 12:53:00;;;;;;;;;;;;;;;;;;4965797;28;89524;-70
2023/03/29 12:55:41;;;;;;;;;;;;;;;;;;4995414;28;91997;-71
2023/03/29 12:58:20;;;;;;;;;;;;;;;;;;4964050;28;89603;-71
2023/03/29 13:00:46;;;;;;;;;;;;;;;;;;4965233;28;89043;-71
2023/03/29 13:03:38;;;;;;;;;;;;;;;;;;4963755;28;91781;-70
2023/03/29 13:06:05;;;;;;;;;;;;;;;;;;4952352;28;89309;-69
2023/03/29 13:08:33;;;;;;;;;;;;;;;;;;4966315;28;91123;-72
2023/03/29 13:10:58;;;;;;;;;;;;;;;;;;4965178;28;90558;-70
2023/03/29 13:13:28;;;;;;;;;;;;;;;;;;4965794;28;90640;-70
2023/03/29 13:15:54;;;;;;;;;;;;;;;;;;4963838;28;89920;-70
2023/03/29 13:18:26;;;;;;;;;;;;;;;;;;4959437;28;90134;-70
2023/03/29 13:20:51;;;;;;;;;;;;;;;;;;4979445;28;91504;-71
2023/03/29 13:23:19;;;;;;;;;;;;;;;;;;4965291;28;89532;-71
2023/03/29 13:26:05;;;;;;;;;;;;;;;;;;4965598;28;90665;-68
2023/03/29 13:28:49;;;;;;;;;;;;;;;;;;4967968;28;91085;-69
2023/03/29 13:31:20;;;;;;;;;;;;;;;;;;4965979;28;90279;-73
2023/03/29 13:34:14;;;;;;;;;;;;;;;;;;4965374;28;89902;-71
2023/03/29 13:36:45;;;;;;;;;;;;;;;;;;4945316;28;89403;-71
2023/03/29 13:39:35;;;;;;;;;;;;;;;;;;4964976;28;89918;-70
2023/03/29 13:42:18;;;;;;;;;;;;;;;;;;4957825;28;90859;-71
2023/03/29 13:44:47;;;;;;;;;;;;;;;;;;4962379;28;89391;-69
2023/03/29 13:47:12;;;;;;;;;;;;;;;;;;4966507;28;89603;-69
2023/03/29 13:49:41;;;;;;;;;;;;;;;;;;4964697;28;89782;-69
2023/03/29 13:52:14;;;;;;;;;;;;;;;;;;4967880;28;89317;-69
2023/03/29 13:54:43;;;;;;;;;;;;;;;;;;4997027;28;92872;-71
2023/03/29 13:57:23;;;;;;;;;;;;;;;;;;4963801;28;91931;-71
2023/03/29 14:00:11;;;;;;;;;;;;;;;;;;4963765;28;91045;-70
2023/03/29 14:02:36;;;;;;;;;;;;;;;;;;4964695;28;89772;-71
2023/03/29 14:05:04;;;;;;;;;;;;;;;;;;4964169;28;89493;-69
2023/03/29 14:07:32;;;;;;;;;;;;;;;;;;4995375;28;90171;-71
2023/03/29 14:09:57;;;;;;;;;;;;;;;;;;4964746;28;90150;-71
2023/03/29 14:12:25;;;;;;;;;;;;;;;;;;4968044;28;90080;-70
2023/03/29 14:14:51;;;;;;;;;;;;;;;;;;4970002;28;89077;-70
2023/03/29 14:17:18;;;;;;;;;;;;;;;;;;4966740;28;89394;-71
2023/03/29 14:19:44;;;;;;;;;;;;;;;;;;4967743;28;89473;-71
2023/03/29 14:22:13;;;;;;;;;;;;;;;;;;4966001;28;92534;-71
2023/03/29 14:24:40;;;;;;;;;;;;;;;;;;4966756;28;90856;-71
2023/03/29 14:27:06;;;;;;;;;;;;;;;;;;4966525;28;89603;-70
2023/03/29 14:29:32;;;;;;;;;;;;;;;;;;4967297;28;89831;-72
2023/03/29 14:32:07;;;;;;;;;;;;;;;;;;4967031;28;89395;-71
2023/03/29 14:34:32;;;;;;;;;;;;;;;;;;4966318;28;89176;-70
2023/03/29 14:36:58;;;;;;;;;;;;;;;;;;4971086;28;89704;-72
2023/03/29 14:39:23;;;;;;;;;;;;;;;;;;4963968;28;89435;-70
2023/03/29 14:41:50;;;;;;;;;;;;;;;;;;4957178;28;89534;-71
2023/03/29 14:44:17;;;;;;;;;;;;;;;;;;4989986;28;90754;-70
2023/03/29 14:46:43;;;;;;;;;;;;;;;;;;4959569;28;89521;-70
2023/03/29 14:49:09;;;;;;;;;;;;;;;;;;4961224;28;90119;-71
2023/03/29 14:51:34;;;;;;;;;;;;;;;;;;4959156;28;91195;-73
2023/03/29 14:54:02;;;;;;;;;;;;;;;;;;4955769;28;89210;-71
2023/03/29 14:56:27;;;;;;;;;;;;;;;;;;4962504;28;89915;-71
2023/03/29 14:58:54;;;;;;;;;;;;;;;;;;4965877;28;89322;-71
2023/03/29 15:01:21;;;;;;;;;;;;;;;;;;4957479;28;89704;-71
2023/03/29 15:03:52;;;;;;;;;;;;;;;;;;4957613;28;90143;-70
2023/03/29 15:06:18;;;;;;;;;;;;;;;;;;4963605;28;89352;-70
2023/03/29 15:08:44;;;;;;;;;;;;;;;;;;4958165;28;90365;-71
2023/03/29 15:11:28;;;;;;;;;;;;;;;;;;4961200;28;90969;-70
2023/03/29 15:14:05;;;;;;;;;;;;;;;;;;4960701;28;89840;-71
2023/03/29 15:16:32;;;;;;;;;;;;;;;;;;4956224;28;90136;-72
2023/03/29 15:18:59;;;;;;;;;;;;;;;;;;4965659;28;89760;-71
2023/03/29 15:21:28;;;;;;;;;;;;;;;;;;4962191;28;90657;-71
2023/03/29 15:23:57;;;;;;;;;;;;;;;;;;4993101;28;92141;-70
2023/03/29 15:26:26;;;;;;;;;;;;;;;;;;4957786;28;89420;-70
2023/03/29 15:28:54;;;;;;;;;;;;;;;;;;4962512;28;89678;-71
2023/03/29 15:31:23;;;;;;;;;;;;;;;;;;4956798;28;90582;-70
2023/03/29 15:33:48;;;;;;;;;;;;;;;;;;4954855;28;89092;-71
2023/03/29 15:36:13;;;;;;;;;;;;;;;;;;4955957;28;90223;-70
2023/03/29 15:38:40;;;;;;;;;;;;;;;;;;4955665;28;90052;-71
2023/03/29 15:41:07;;;;;;;;;;;;;;;;;;4962067;28;89041;-71
2023/03/29 15:43:32;;;;;;;;;;;;;;;;;;4956221;28;89199;-71
2023/03/29 15:45:57;;;;;;;;;;;;;;;;;;4952318;28;89017;-71
2023/03/29 15:48:24;;;;;;;;;;;;;;;;;;4959735;28;89665;-71
2023/03/29 15:50:50;;;;;;;;;;;;;;;;;;4960524;28;90924;-70
2023/03/29 15:53:16;;;;;;;;;;;;;;;;;;4961879;28;90560;-70
2023/03/29 15:55:43;;;;;;;;;;;;;;;;;;4960695;28;90100;-71
2023/03/29 15:58:13;;;;;;;;;;;;;;;;;;4957473;28;89686;-71
2023/03/29 16:00:40;;;;;;;;;;;;;;;;;;4956836;28;89492;-71
2023/03/29 16:03:09;;;;;;;;;;;;;;;;;;4978399;28;92584;-77
2023/03/29 16:05:34;;;;;;;;;;;;;;;;;;4955717;28;91188;-70
2023/03/29 16:08:00;;;;;;;;;;;;;;;;;;4963497;28;90464;-71
2023/03/29 16:10:25;;;;;;;;;;;;;;;;;;4957872;28;89105;-70
2023/03/29 16:12:50;;;;;;;;;;;;;;;;;;4963323;28;89274;-70
2023/03/29 16:15:17;;;;;;;;;;;;;;;;;;4956076;28;89666;-71
2023/03/29 16:17:42;;;;;;;;;;;;;;;;;;4958271;28;89400;-69
2023/03/29 16:20:09;;;;;;;;;;;;;;;;;;4956432;28;89130;-70
2023/03/29 16:22:34;;;;;;;;;;;;;;;;;;4955638;28;89659;-70
2023/03/29 16:24:59;;;;;;;;;;;;;;;;;;4964926;28;90871;-71
2023/03/29 16:27:25;;;;;;;;;;;;;;;;;;4962764;28;90195;-70
2023/03/29 16:29:50;;;;;;;;;;;;;;;;;;4960570;28;91940;-69
2023/03/29 16:32:15;;;;;;;;;;;;;;;;;;4961500;28;89510;-69
2023/03/29 16:34:42;;;;;;;;;;;;;;;;;;4956094;28;91070;-68
2023/03/29 16:37:07;;;;;;;;;;;;;;;;;;4963369;28;89820;-69
2023/03/29 16:39:33;;;;;;;;;;;;;;;;;;4958389;28;89457;-69
2023/03/29 16:41:58;;;;;;;;;;;;;;;;;;4956153;28;90735;-70
2023/03/29 16:44:26;;;;;;;;;;;;;;;;;;4956792;28;90534;-68
2023/03/29 16:46:52;;;;;;;;;;;;;;;;;;4959247;28;89591;-69
2023/03/29 16:49:18;;;;;;;;;;;;;;;;;;4964098;28;89618;-70
2023/03/29 16:51:47;;;;;;;;;;;;;;;;;;4954013;28;89851;-70
2023/03/29 16:54:12;;;;;;;;;;;;;;;;;;4959692;28;89709;-68